Time;durP1;ratioP1;P1;durP2;ratioP2;P2;SDS_P1;SDS_P2;PMS_P1;PMS_P2;Temp;Humidity;BMP_temperature;BMP_pressure;BME280_temperature;BME280_humidity;BME280_pressure;Samples;Min_cycle;Max_cycle;Signal;HPM_P1;HPM_P2
2023/07/07 00:00:37;;;;;;;3.80;1.70;;;14.50;99.90;;;;;;5135981;27;20051;-53
2023/07/07 00:03:03;;;;;;;6.22;1.73;;;14.50;99.90;;;;;;5135676;27;20491;-53
2023/07/07 00:05:28;;;;;;;3.35;1.50;;;14.50;99.90;;;;;;5117561;27;20035;-53
2023/07/07 00:07:54;;;;;;;3.80;1.60;;;14.50;99.90;;;;;;5135854;27;20422;-54
2023/07/07 00:10:20;;;;;;;4.32;1.85;;;14.50;99.90;;;;;;5100329;27;20295;-52
2023/07/07 00:12:46;;;;;;;3.80;1.88;;;14.50;99.90;;;;;;5135652;27;20364;-52
2023/07/07 00:15:12;;;;;;;;;;;14.50;99.90;;;;;;5135499;27;20046;-53
2023/07/07 00:17:41;;;;;;;5.03;2.42;;;14.50;99.90;;;;;;5135456;27;19919;-50
2023/07/07 00:20:09;;;;;;;4.70;1.98;;;14.40;99.90;;;;;;5135379;27;20495;-52
2023/07/07 00:22:35;;;;;;;5.53;2.17;;;14.50;99.90;;;;;;5117285;27;20043;-53
2023/07/07 00:25:03;;;;;;;5.40;1.77;;;14.50;99.90;;;;;;5135180;27;20441;-51
2023/07/07 00:27:29;;;;;;;5.75;2.38;;;14.40;99.90;;;;;;5135373;27;20045;-53
2023/07/07 00:29:54;;;;;;;4.82;2.13;;;14.40;99.90;;;;;;5135466;27;20039;-52
2023/07/07 00:32:20;;;;;;;8.23;2.70;;;14.50;99.90;;;;;;5135279;27;20047;-52
2023/07/07 00:34:45;;;;;;;4.73;2.23;;;14.40;99.90;;;;;;5135218;27;20292;-52
2023/07/07 00:37:11;;;;;;;5.73;2.23;;;14.50;99.90;;;;;;5135011;27;20092;-51
2023/07/07 00:39:37;;;;;;;4.77;1.97;;;14.50;99.90;;;;;;5135017;27;20071;-51
2023/07/07 00:42:03;;;;;;;4.20;1.73;;;14.40;99.90;;;;;;5135135;27;20085;-52
2023/07/07 00:44:50;;;;;;;5.10;2.08;;;14.40;99.90;;;;;;5135156;27;20325;-49
2023/07/07 00:47:17;;;;;;;4.63;2.17;;;14.40;99.90;;;;;;5135069;27;20047;-52
2023/07/07 00:49:43;;;;;;;6.88;2.28;;;14.40;99.90;;;;;;5134990;27;20090;-53
2023/07/07 00:52:09;;;;;;;4.65;1.98;;;14.30;99.90;;;;;;5134755;27;20078;-53
2023/07/07 00:54:35;;;;;;;4.97;2.00;;;14.30;99.90;;;;;;5134938;27;20118;-51
2023/07/07 00:57:02;;;;;;;;;;;14.30;99.90;;;;;;5135096;27;20047;-52
2023/07/07 00:59:38;;;;;;;5.03;1.85;;;14.30;99.90;;;;;;5134824;27;19919;-52
2023/07/07 01:02:12;;;;;;;3.58;1.63;;;14.10;99.90;;;;;;5099535;27;20043;-50
2023/07/07 01:04:42;;;;;;;5.20;2.13;;;14.00;99.90;;;;;;5116370;28;20084;-50
2023/07/07 01:07:21;;;;;;;4.03;2.00;;;13.90;99.90;;;;;;5134868;27;20042;-51
2023/07/07 01:09:47;;;;;;;6.10;2.00;;;13.90;99.90;;;;;;5134698;27;20046;-51
2023/07/07 01:12:14;;;;;;;4.87;1.90;;;13.90;99.90;;;;;;5116284;27;20047;-50
2023/07/07 01:14:43;;;;;;;5.25;2.40;;;13.90;99.90;;;;;;5134436;27;20757;-52
2023/07/07 01:17:47;;;;;;;5.43;2.20;;;13.90;99.90;;;;;;5134471;27;20403;-52
2023/07/07 01:20:41;;;;;;;5.43;2.45;;;13.90;99.90;;;;;;5134626;28;20053;-49
2023/07/07 01:23:21;;;;;;;4.18;1.80;;;13.80;99.90;;;;;;5134553;28;20043;-51
2023/07/07 01:26:14;;;;;;;4.50;2.10;;;13.70;99.90;;;;;;5134514;27;20117;-49
2023/07/07 01:29:05;;;;;;;4.95;2.28;;;13.70;99.90;;;;;;5138931;27;20047;-52
2023/07/07 01:31:40;;;;;;;4.80;2.20;;;13.70;99.90;;;;;;5138765;27;20047;-52
2023/07/07 01:34:10;;;;;;;5.25;2.10;;;13.70;99.90;;;;;;5139053;27;20047;-50
2023/07/07 01:36:36;;;;;;;5.20;2.15;;;13.70;99.90;;;;;;5120585;27;20046;-50
2023/07/07 01:39:03;;;;;;;4.38;1.90;;;13.70;99.90;;;;;;5120889;27;20047;-51
2023/07/07 01:42:00;;;;;;;5.63;1.88;;;13.70;99.90;;;;;;5138626;27;20086;-48
2023/07/07 01:44:35;;;;;;;4.47;1.80;;;13.70;99.90;;;;;;5137179;27;20055;-50
2023/07/07 01:47:15;;;;;;;4.18;2.00;;;13.60;99.90;;;;;;5120365;27;20078;-49
2023/07/07 01:49:44;;;;;;;5.97;2.65;;;13.50;99.90;;;;;;5138388;27;20051;-53
2023/07/07 01:52:35;;;;;;;4.50;2.30;;;13.40;99.90;;;;;;5138383;27;20436;-50
2023/07/07 01:55:15;;;;;;;4.50;2.03;;;13.30;99.90;;;;;;5138448;27;20051;-50
2023/07/07 01:57:45;;;;;;;4.85;2.03;;;13.30;99.90;;;;;;5138403;27;20168;-49
2023/07/07 02:00:13;;;;;;;4.68;1.98;;;13.30;99.90;;;;;;5138163;27;20150;-48
2023/07/07 02:02:38;;;;;;;5.25;2.40;;;13.40;99.90;;;;;;5138133;27;20047;-51
2023/07/07 02:05:04;;;;;;;5.37;2.27;;;13.40;99.90;;;;;;5138008;27;20039;-48
2023/07/07 02:07:30;;;;;;;5.15;2.20;;;13.40;99.90;;;;;;5138579;27;20043;-48
2023/07/07 02:09:56;;;;;;;6.67;2.53;;;13.40;99.90;;;;;;5138360;27;20453;-48
2023/07/07 02:12:21;;;;;;;5.50;2.40;;;13.50;99.90;;;;;;5137935;27;20276;-49
2023/07/07 02:14:47;;;;;;;5.97;2.33;;;13.50;99.90;;;;;;5137757;27;20131;-50
2023/07/07 02:17:15;;;;;;;6.03;2.60;;;13.50;99.90;;;;;;5137770;27;20035;-50
2023/07/07 02:19:42;;;;;;;5.57;2.50;;;13.50;99.90;;;;;;5137815;27;20065;-49
2023/07/07 02:22:08;;;;;;;7.70;2.50;;;13.50;99.90;;;;;;5119773;27;20051;-51
2023/07/07 02:24:33;;;;;;;5.72;2.72;;;13.50;99.90;;;;;;5137852;27;20050;-50
2023/07/07 02:26:59;;;;;;;6.95;3.10;;;13.50;99.90;;;;;;5137797;27;20388;-49
2023/07/07 02:29:25;;;;;;;5.65;2.92;;;13.50;99.90;;;;;;5137591;27;20122;-48
2023/07/07 02:31:50;;;;;;;6.40;3.20;;;13.50;99.90;;;;;;5137691;27;20080;-48
2023/07/07 02:34:16;;;;;;;5.93;2.90;;;13.50;99.90;;;;;;5119175;27;20510;-50
2023/07/07 02:36:42;;;;;;;6.43;2.67;;;13.60;99.90;;;;;;5119973;27;20040;-48
2023/07/07 02:39:07;;;;;;;7.47;2.97;;;13.60;99.90;;;;;;5137292;27;20483;-48
2023/07/07 02:41:33;;;;;;;6.43;3.10;;;13.50;99.90;;;;;;5137532;27;20394;-52
2023/07/07 02:43:59;;;;;;;6.60;2.73;;;13.50;99.90;;;;;;5137352;27;20050;-49
2023/07/07 02:46:25;;;;;;;5.30;2.60;;;13.50;99.90;;;;;;5137164;27;20095;-49
2023/07/07 02:48:50;;;;;;;5.85;2.85;;;13.50;99.90;;;;;;5137015;27;20043;-51
2023/07/07 02:51:16;;;;;;;6.70;3.45;;;13.50;99.90;;;;;;5137316;27;20144;-49
2023/07/07 02:53:42;;;;;;;5.70;3.47;;;13.50;99.90;;;;;;5137645;27;20046;-50
2023/07/07 02:56:08;;;;;;;5.80;2.80;;;13.50;99.90;;;;;;5137392;27;20050;-50
2023/07/07 02:58:34;;;;;;;6.35;2.97;;;13.40;99.90;;;;;;5136839;27;20055;-49
2023/07/07 03:01:09;;;;;;;6.47;2.97;;;13.40;99.90;;;;;;5118988;27;20047;-51
2023/07/07 03:03:37;;;;;;;6.00;3.28;;;13.40;99.90;;;;;;5118801;27;20116;-48
2023/07/07 03:06:05;;;;;;;6.10;3.30;;;13.40;99.90;;;;;;5136637;27;20525;-49
2023/07/07 03:08:31;;;;;;;6.15;3.25;;;13.40;99.90;;;;;;5136925;27;20051;-49
2023/07/07 03:10:56;;;;;;;6.87;3.00;;;13.40;99.90;;;;;;5118830;27;20050;-49
2023/07/07 03:13:22;;;;;;;8.13;3.93;;;13.40;99.90;;;;;;5136996;27;20054;-49
2023/07/07 03:15:47;;;;;;;7.53;3.60;;;13.40;99.90;;;;;;5118499;27;20035;-48
2023/07/07 03:18:14;;;;;;;7.67;3.30;;;13.30;99.90;;;;;;5136729;27;20039;-48
2023/07/07 03:20:47;;;;;;;5.53;3.33;;;13.30;99.90;;;;;;5119081;27;20050;-48
2023/07/07 03:23:13;;;;;;;6.30;3.30;;;13.30;99.90;;;;;;5136725;27;20046;-50
2023/07/07 03:25:39;;;;;;;6.00;3.30;;;13.30;99.90;;;;;;5136549;27;20391;-49
2023/07/07 03:28:05;;;;;;;6.80;3.53;;;13.20;99.90;;;;;;5136747;27;20046;-50
2023/07/07 03:30:31;;;;;;;7.65;4.10;;;13.20;99.90;;;;;;5136312;27;20503;-51
2023/07/07 03:32:57;;;;;;;6.30;3.60;;;13.20;99.90;;;;;;5136780;27;20051;-48
2023/07/07 03:35:22;;;;;;;7.20;3.40;;;13.20;99.90;;;;;;5136460;27;20494;-50
2023/07/07 03:37:48;;;;;;;6.20;3.07;;;13.20;99.90;;;;;;5136366;27;20280;-48
2023/07/07 03:40:14;;;;;;;5.80;3.20;;;13.20;99.90;;;;;;5136399;27;20039;-50
2023/07/07 03:42:39;;;;;;;5.75;3.08;;;13.20;99.90;;;;;;5136009;27;20054;-48
2023/07/07 03:45:06;;;;;;;6.00;3.20;;;13.20;99.90;;;;;;5136073;27;20428;-50
2023/07/07 03:47:32;;;;;;;7.10;3.20;;;13.20;99.90;;;;;;5136699;27;20099;-48
2023/07/07 03:49:57;;;;;;;7.57;2.97;;;13.20;99.90;;;;;;5135756;27;20047;-48
2023/07/07 03:52:23;;;;;;;8.60;4.23;;;13.30;99.90;;;;;;5136095;27;20043;-49
2023/07/07 03:54:49;;;;;;;8.27;4.07;;;13.30;99.90;;;;;;5136045;27;20423;-48
2023/07/07 03:57:14;;;;;;;6.90;3.53;;;13.30;99.90;;;;;;5117573;27;20339;-49
2023/07/07 03:59:40;;;;;;;9.50;3.80;;;13.40;99.90;;;;;;5136037;27;20050;-48
2023/07/07 04:02:06;;;;;;;8.87;3.80;;;13.40;99.90;;;;;;5135954;27;20043;-50
2023/07/07 04:04:31;;;;;;;7.38;3.33;;;13.40;99.90;;;;;;5136082;27;20054;-50
2023/07/07 04:06:58;;;;;;;6.97;3.80;;;13.50;99.90;;;;;;5135799;27;20400;-49
2023/07/07 04:09:25;;;;;;;8.18;3.85;;;13.50;99.90;;;;;;5135903;27;20047;-49
2023/07/07 04:11:51;;;;;;;7.28;3.53;;;13.60;99.90;;;;;;5135751;27;20051;-48
2023/07/07 04:14:18;;;;;;;6.80;4.13;;;13.60;99.90;;;;;;5117472;27;20047;-49
2023/07/07 04:16:44;;;;;;;9.30;4.50;;;13.70;99.90;;;;;;5135591;27;20130;-49
2023/07/07 04:19:10;;;;;;;9.32;4.57;;;13.70;99.90;;;;;;5135561;27;20083;-49
2023/07/07 04:21:36;;;;;;;8.07;4.40;;;13.70;99.90;;;;;;5135364;27;20122;-49
2023/07/07 04:24:03;;;;;;;6.93;4.07;;;13.70;99.90;;;;;;5135504;27;20050;-49
2023/07/07 04:26:31;;;;;;;9.07;4.45;;;13.80;99.90;;;;;;5116987;27;20098;-48
2023/07/07 04:28:58;;;;;;;9.93;4.72;;;13.80;99.90;;;;;;5135341;27;20058;-49
2023/07/07 04:31:25;;;;;;;10.20;4.43;;;13.80;99.90;;;;;;5135369;27;20078;-48
2023/07/07 04:33:52;;;;;;;8.60;4.68;;;13.90;99.90;;;;;;5135246;27;20130;-50
2023/07/07 04:36:18;;;;;;;8.52;4.07;;;13.90;99.90;;;;;;5135465;27;20115;-51
2023/07/07 04:38:44;;;;;;;9.05;4.85;;;13.90;99.90;;;;;;5135272;27;20525;-49
2023/07/07 04:41:13;;;;;;;10.95;4.60;;;13.90;99.90;;;;;;5134976;27;20049;-48
2023/07/07 04:43:41;;;;;;;9.60;4.60;;;14.00;99.90;;;;;;5134927;27;20051;-48
2023/07/07 04:46:09;;;;;;;9.25;4.72;;;14.00;99.90;;;;;;5135138;27;20392;-50
2023/07/07 04:48:35;;;;;;;9.25;4.78;;;14.10;99.90;;;;;;5135018;27;20039;-49
2023/07/07 04:51:02;;;;;;;8.97;4.40;;;14.20;99.90;;;;;;5116888;27;20394;-48
2023/07/07 04:53:29;;;;;;;9.93;4.90;;;14.30;99.90;;;;;;5134447;27;20298;-50
2023/07/07 04:55:56;;;;;;;9.43;4.80;;;14.30;99.90;;;;;;5134738;27;20403;-48
2023/07/07 04:58:25;;;;;;;9.73;5.00;;;14.40;99.90;;;;;;5134602;27;20091;-49
2023/07/07 05:01:11;;;;;;;9.80;5.10;;;14.40;99.90;;;;;;5135359;27;20054;-48
2023/07/07 05:03:39;;;;;;;10.43;4.80;;;14.40;99.90;;;;;;5134658;27;20051;-48
2023/07/07 05:06:05;;;;;;;11.23;5.25;;;14.50;99.90;;;;;;5116359;28;20083;-47
2023/07/07 05:08:33;;;;;;;10.18;5.35;;;14.50;99.90;;;;;;5134526;27;20085;-47
2023/07/07 05:10:59;;;;;;;8.93;4.97;;;14.60;99.90;;;;;;5134686;27;20043;-47
2023/07/07 05:13:25;;;;;;;10.85;5.47;;;14.60;99.90;;;;;;5134575;27;20177;-47
2023/07/07 05:16:03;;;;;;;9.50;5.18;;;14.70;99.90;;;;;;5134802;27;20054;-46
2023/07/07 05:18:28;;;;;;;;;;;15.10;99.90;;;;;;5117065;27;20046;-47
2023/07/07 05:20:54;;;;;;;12.63;5.68;;;15.50;99.90;;;;;;5134519;27;19942;-47
2023/07/07 05:23:20;;;;;;;12.00;5.55;;;15.90;99.90;;;;;;5116119;28;20058;-48
2023/07/07 05:25:46;;;;;;;9.73;4.90;;;16.70;99.90;;;;;;5134241;28;20035;-47
2023/07/07 05:28:11;;;;;;;10.90;5.80;;;17.20;99.90;;;;;;5115764;28;20095;-47
2023/07/07 05:30:40;;;;;;;11.93;5.53;;;17.20;99.90;;;;;;5133944;28;20047;-46
2023/07/07 05:33:06;;;;;;;9.90;5.63;;;17.10;99.90;;;;;;5134271;28;20273;-47
2023/07/07 05:35:32;;;;;;;9.75;4.57;;;16.90;99.90;;;;;;5134029;28;20045;-47
2023/07/07 05:38:00;;;;;;;11.73;5.20;;;16.90;99.90;;;;;;5133949;28;20103;-46
2023/07/07 05:40:26;;;;;;;10.10;5.65;;;16.90;99.90;;;;;;5115992;28;20051;-47
2023/07/07 05:42:52;;;;;;;;;;;16.80;99.90;;;;;;5134665;28;20058;-46
2023/07/07 05:45:17;;;;;;;8.90;4.85;;;16.80;99.90;;;;;;5134157;28;19919;-47
2023/07/07 05:47:43;;;;;;;8.27;4.22;;;16.80;99.90;;;;;;5133961;28;20075;-47
2023/07/07 05:50:09;;;;;;;11.57;5.10;;;16.90;99.90;;;;;;5099017;28;20051;-47
2023/07/07 05:52:35;;;;;;;10.52;5.38;;;17.00;99.90;;;;;;5115899;28;20285;-46
2023/07/07 05:55:03;;;;;;;8.45;4.90;;;17.00;99.90;;;;;;5133901;28;20077;-47
2023/07/07 05:57:28;;;;;;;13.38;5.50;;;17.00;99.90;;;;;;5133654;28;20063;-46
2023/07/07 05:59:54;;;;;;;8.05;4.60;;;17.00;99.90;;;;;;5134209;28;20145;-46
2023/07/07 06:02:20;;;;;;;10.07;5.28;;;17.00;99.90;;;;;;5133767;28;20412;-47
2023/07/07 06:04:46;;;;;;;9.98;5.35;;;17.00;99.90;;;;;;5133730;28;20475;-47
2023/07/07 06:07:12;;;;;;;9.05;4.95;;;17.00;99.90;;;;;;5134334;28;20122;-47
2023/07/07 06:09:38;;;;;;;8.88;5.22;;;17.10;99.90;;;;;;5133970;28;20035;-47
2023/07/07 06:12:05;;;;;;;8.82;4.63;;;17.10;99.90;;;;;;5115891;27;20364;-47
2023/07/07 06:14:31;;;;;;;9.13;4.68;;;17.10;99.90;;;;;;5137558;27;20457;-47
2023/07/07 06:16:56;;;;;;;9.55;5.20;;;17.20;99.90;;;;;;5137684;27;20035;-47
2023/07/07 06:19:22;;;;;;;9.15;4.53;;;17.20;99.90;;;;;;5137411;27;20043;-47
2023/07/07 06:21:48;;;;;;;9.30;4.53;;;17.30;99.90;;;;;;5137424;27;20429;-48
2023/07/07 06:24:14;;;;;;;8.90;4.90;;;17.30;99.90;;;;;;5137845;27;20055;-47
2023/07/07 06:26:39;;;;;;;8.50;4.45;;;17.40;99.90;;;;;;5137853;27;20047;-47
2023/07/07 06:29:06;;;;;;;8.30;4.43;;;17.50;99.90;;;;;;5137655;27;20047;-47
2023/07/07 06:31:32;;;;;;;9.43;4.53;;;17.50;99.90;;;;;;5119349;27;20055;-48
2023/07/07 06:33:57;;;;;;;9.55;3.97;;;17.60;99.90;;;;;;5137547;27;20089;-47
2023/07/07 06:36:23;;;;;;;7.15;3.90;;;17.70;99.90;;;;;;5137285;27;20039;-48
2023/07/07 06:38:49;;;;;;;8.68;4.60;;;17.70;99.90;;;;;;5137594;27;20483;-49
2023/07/07 06:41:19;;;;;;;7.07;4.20;;;17.80;99.90;;;;;;5119190;27;20401;-47
2023/07/07 06:43:45;;;;;;;8.32;4.10;;;17.90;99.90;;;;;;5137392;27;20051;-48
2023/07/07 06:46:13;;;;;;;7.55;4.07;;;17.90;99.90;;;;;;5137235;27;20054;-47
2023/07/07 06:48:39;;;;;;;7.10;3.88;;;18.00;99.90;;;;;;5137083;27;20050;-47
2023/07/07 06:51:05;;;;;;;7.43;4.18;;;18.00;99.90;;;;;;5101880;27;20047;-48
2023/07/07 06:53:30;;;;;;;7.55;3.55;;;18.10;99.90;;;;;;5137306;27;20050;-48
2023/07/07 06:55:56;;;;;;;7.53;4.53;;;18.10;99.90;;;;;;5137167;27;20100;-47
2023/07/07 06:58:22;;;;;;;8.60;3.78;;;18.20;99.90;;;;;;5136909;27;20055;-48
2023/07/07 07:00:48;;;;;;;8.20;3.90;;;18.30;99.90;;;;;;5137040;27;20047;-47
2023/07/07 07:03:14;;;;;;;7.93;4.10;;;18.50;99.90;;;;;;5136935;27;20548;-48
2023/07/07 07:05:40;;;;;;;9.10;3.95;;;18.50;99.90;;;;;;5137326;27;20047;-48
2023/07/07 07:08:06;;;;;;;;;;;18.60;99.90;;;;;;5137172;27;20484;-48
2023/07/07 07:10:31;;;;;;;7.18;3.28;;;18.70;99.90;;;;;;5118756;27;19927;-47
2023/07/07 07:12:57;;;;;;;7.28;3.33;;;18.80;99.90;;;;;;5136731;27;20531;-47
2023/07/07 07:15:23;;;;;;;6.57;3.45;;;18.80;99.90;;;;;;5118413;27;20042;-48
2023/07/07 07:17:48;;;;;;;7.35;2.80;;;18.90;99.90;;;;;;5136563;27;20548;-47
2023/07/07 07:20:17;;;;;;;7.07;3.40;;;19.00;99.90;;;;;;5118337;27;20043;-47
2023/07/07 07:22:43;;;;;;;6.07;2.92;;;19.00;99.90;;;;;;5136795;27;20057;-47
2023/07/07 07:25:09;;;;;;;5.38;2.85;;;19.20;99.90;;;;;;5135529;27;20043;-49
2023/07/07 07:27:37;;;;;;;6.68;2.92;;;19.30;99.90;;;;;;5136772;27;20035;-48
2023/07/07 07:30:04;;;;;;;5.72;2.65;;;19.50;99.90;;;;;;5136449;27;20126;-48
2023/07/07 07:32:29;;;;;;;6.60;2.47;;;19.80;99.90;;;;;;5136211;27;20092;-48
2023/07/07 07:34:55;;;;;;;6.63;3.47;;;20.20;99.90;;;;;;5136522;27;20043;-47
2023/07/07 07:37:21;;;;;;;5.07;2.40;;;20.60;99.90;;;;;;5136359;27;20094;-48
2023/07/07 07:39:46;;;;;;;5.47;2.65;;;20.80;99.90;;;;;;5136299;27;20081;-48
2023/07/07 07:42:12;;;;;;;5.57;2.50;;;20.80;99.90;;;;;;5136368;27;20095;-48
2023/07/07 07:44:38;;;;;;;6.90;2.75;;;20.70;99.90;;;;;;5136092;27;20054;-47
2023/07/07 07:47:04;;;;;;;4.15;2.40;;;20.60;99.90;;;;;;5117668;27;20039;-48
2023/07/07 07:49:30;;;;;;;5.88;2.97;;;20.50;99.90;;;;;;5136639;27;20047;-48
2023/07/07 07:51:56;;;;;;;5.35;2.70;;;20.40;99.90;;;;;;5136071;27;20039;-49
2023/07/07 07:54:23;;;;;;;6.13;2.70;;;20.40;99.90;;;;;;5136035;27;20070;-47
2023/07/07 07:56:49;;;;;;;5.05;2.20;;;20.30;99.90;;;;;;5135952;27;20043;-48
2023/07/07 07:59:15;;;;;;;5.65;2.20;;;20.30;99.90;;;;;;5135777;27;20093;-47
2023/07/07 08:01:42;;;;;;;4.20;2.00;;;20.30;99.90;;;;;;5135727;27;20043;-47
2023/07/07 08:04:08;;;;;;;4.30;1.90;;;20.30;99.90;;;;;;5135781;27;20108;-47
2023/07/07 08:06:34;;;;;;;5.15;2.20;;;20.20;99.90;;;;;;5135719;27;20092;-47
2023/07/07 08:09:00;;;;;;;4.03;1.50;;;20.20;99.90;;;;;;5135695;27;20432;-47
2023/07/07 08:11:46;;;;;;;;;;;20.30;99.90;;;;;;5136399;27;20039;-48
2023/07/07 08:14:12;;;;;;;3.70;1.42;;;20.30;99.90;;;;;;5117314;27;19930;-47
2023/07/07 08:16:38;;;;;;;3.80;1.58;;;20.30;99.90;;;;;;5135552;27;20104;-48
2023/07/07 08:19:04;;;;;;;4.35;1.50;;;20.30;99.90;;;;;;5135491;27;20043;-47
2023/07/07 08:21:30;;;;;;;5.75;1.92;;;20.30;99.90;;;;;;5135607;27;20050;-47
2023/07/07 08:23:56;;;;;;;4.35;1.55;;;20.30;99.90;;;;;;5117502;27;20392;-48
2023/07/07 08:26:21;;;;;;;3.38;1.33;;;20.30;99.90;;;;;;5135397;27;20043;-47
2023/07/07 08:28:47;;;;;;;3.72;1.42;;;20.40;99.90;;;;;;5135331;27;20122;-48
2023/07/07 08:31:13;;;;;;;4.90;1.35;;;20.40;99.90;;;;;;5135345;27;20042;-47
2023/07/07 08:33:38;;;;;;;3.85;1.38;;;20.40;99.90;;;;;;5135680;27;20058;-51
2023/07/07 08:36:04;;;;;;;3.92;1.80;;;20.40;99.90;;;;;;5135098;27;20031;-51
2023/07/07 08:38:30;;;;;;;3.25;1.25;;;20.40;99.90;;;;;;5135337;27;20092;-48
2023/07/07 08:40:56;;;;;;;2.83;1.10;;;20.40;99.90;;;;;;5135133;27;20082;-49
2023/07/07 08:43:24;;;;;;;3.65;1.10;;;20.50;99.90;;;;;;5135075;27;20142;-49
2023/07/07 08:46:21;;;;;;;3.35;1.30;;;20.50;99.90;;;;;;5135018;27;20085;-49
2023/07/07 08:48:59;;;;;;;3.17;1.13;;;20.50;99.90;;;;;;5135335;27;20046;-49
2023/07/07 08:51:36;;;;;;;2.97;1.10;;;20.50;99.90;;;;;;5134802;27;20552;-50
2023/07/07 08:54:15;;;;;;;2.30;1.10;;;20.60;99.90;;;;;;5134916;27;20130;-49
2023/07/07 08:56:49;;;;;;;3.90;1.38;;;20.60;99.90;;;;;;5134983;27;20129;-48
2023/07/07 08:59:27;;;;;;;5.72;1.17;;;20.70;99.90;;;;;;5135034;27;20065;-50
2023/07/07 09:02:20;;;;;;;3.10;1.33;;;20.70;99.90;;;;;;5116843;27;20058;-48
2023/07/07 09:05:05;;;;;;;4.53;1.23;;;20.70;99.90;;;;;;5134957;27;20121;-49
2023/07/07 09:07:49;;;;;;;3.22;1.13;;;20.80;99.90;;;;;;5116574;27;20058;-52
2023/07/07 09:10:15;;;;;;;2.90;1.33;;;20.80;99.90;;;;;;5134582;27;20058;-51
2023/07/07 09:13:07;;;;;;;3.17;1.20;;;20.80;99.90;;;;;;5116437;27;20051;-48
2023/07/07 09:15:39;;;;;;;4.85;0.93;;;20.80;99.90;;;;;;5130692;27;20047;-50
2023/07/07 09:18:22;;;;;;;3.20;1.10;;;20.80;99.90;;;;;;5116237;27;20043;-51
2023/07/07 09:20:55;;;;;;;2.85;0.95;;;20.80;99.90;;;;;;5134596;27;20074;-52
2023/07/07 09:23:24;;;;;;;4.20;1.40;;;20.90;99.90;;;;;;5116087;28;20051;-47
2023/07/07 09:26:19;;;;;;;3.63;1.30;;;20.90;99.90;;;;;;5134509;28;20050;-50
2023/07/07 09:28:50;;;;;;;3.60;1.17;;;20.90;99.90;;;;;;5134557;28;20058;-49
2023/07/07 09:31:41;;;;;;;3.40;0.95;;;21.00;99.90;;;;;;5116038;28;20404;-52
2023/07/07 09:34:11;;;;;;;4.10;1.08;;;21.00;99.90;;;;;;5134864;28;20047;-52
2023/07/07 09:36:49;;;;;;;4.88;1.63;;;21.00;99.90;;;;;;5134703;28;20046;-51
2023/07/07 09:39:33;;;;;;;3.92;1.35;;;21.10;99.90;;;;;;5116219;28;20047;-51
2023/07/07 09:42:07;;;;;;;5.95;1.40;;;21.20;99.90;;;;;;5116147;28;20476;-51
2023/07/07 09:45:10;;;;;;;2.20;1.00;;;21.20;99.90;;;;;;5134321;28;20095;-50
2023/07/07 09:48:02;;;;;;;3.22;1.20;;;21.20;99.90;;;;;;5135359;27;20496;-52
2023/07/07 09:50:39;;;;;;;2.67;0.98;;;21.30;99.90;;;;;;5138845;27;20043;-49
2023/07/07 09:53:30;;;;;;;2.25;1.08;;;21.30;99.90;;;;;;5120476;27;20115;-52
2023/07/07 09:55:56;;;;;;;2.85;1.10;;;21.40;99.90;;;;;;5138246;27;20121;-50
2023/07/07 09:58:28;;;;;;;2.85;0.90;;;21.40;99.90;;;;;;5138340;27;20094;-49
2023/07/07 10:00:57;;;;;;;2.72;0.90;;;21.40;99.90;;;;;;5138358;27;20090;-49
2023/07/07 10:03:39;;;;;;;2.35;0.90;;;21.50;99.90;;;;;;5138245;27;20039;-51
2023/07/07 10:06:12;;;;;;;2.30;0.90;;;21.60;99.90;;;;;;5138356;27;20402;-47
2023/07/07 10:08:38;;;;;;;2.83;1.10;;;21.60;99.90;;;;;;5138273;27;20043;-48
2023/07/07 10:11:22;;;;;;;4.07;1.23;;;21.70;99.90;;;;;;5119577;27;20138;-49
2023/07/07 10:13:53;;;;;;;3.75;0.90;;;21.80;99.90;;;;;;5119876;27;20139;-49
2023/07/07 10:16:30;;;;;;;4.03;1.10;;;21.80;99.90;;;;;;5138078;27;20043;-47
2023/07/07 10:18:59;;;;;;;5.18;1.40;;;22.00;99.90;;;;;;5137929;27;20086;-49
2023/07/07 10:21:25;;;;;;;3.35;1.00;;;22.10;99.90;;;;;;5137532;27;20156;-47
2023/07/07 10:23:52;;;;;;;4.47;1.20;;;22.20;99.90;;;;;;5119706;27;20499;-49
2023/07/07 10:26:18;;;;;;;3.13;1.00;;;22.30;99.90;;;;;;5137730;27;20480;-48
2023/07/07 10:28:44;;;;;;;3.25;0.90;;;22.40;99.90;;;;;;5119638;27;20055;-48
2023/07/07 10:31:11;;;;;;;3.72;1.10;;;22.50;99.90;;;;;;5138040;27;20043;-49
2023/07/07 10:33:39;;;;;;;3.40;1.00;;;22.60;99.90;;;;;;5137557;27;20495;-48
2023/07/07 10:36:25;;;;;;;3.35;1.02;;;22.60;99.90;;;;;;5137311;27;20518;-48
2023/07/07 10:38:55;;;;;;;2.55;0.90;;;22.70;99.90;;;;;;5137494;27;20054;-49
2023/07/07 10:41:25;;;;;;;3.35;1.10;;;22.80;99.90;;;;;;5137708;27;20043;-48
2023/07/07 10:43:51;;;;;;;3.53;1.10;;;22.90;99.90;;;;;;5137615;27;20377;-47
2023/07/07 10:46:17;;;;;;;2.97;1.08;;;23.00;99.90;;;;;;5137452;27;20152;-48
2023/07/07 10:48:46;;;;;;;3.58;1.00;;;23.10;99.90;;;;;;5137294;27;20051;-47
2023/07/07 10:51:39;;;;;;;5.18;1.27;;;23.20;99.90;;;;;;5137392;27;20039;-47
2023/07/07 10:54:37;;;;;;;3.17;0.98;;;23.30;99.90;;;;;;5119244;27;20494;-48
2023/07/07 10:57:17;;;;;;;3.22;0.93;;;23.40;99.90;;;;;;5136784;27;20122;-49
2023/07/07 10:59:57;;;;;;;3.80;1.10;;;23.50;99.90;;;;;;5137392;27;20055;-48
2023/07/07 11:02:43;;;;;;;3.75;0.90;;;23.50;99.90;;;;;;5137432;27;20051;-49
2023/07/07 11:05:39;;;;;;;2.28;0.70;;;23.60;99.90;;;;;;5136842;27;20039;-51
2023/07/07 11:08:31;;;;;;;2.53;1.15;;;23.70;99.90;;;;;;5130399;27;20155;-53
2023/07/07 11:11:14;;;;;;;3.45;1.27;;;23.80;99.90;;;;;;5093787;27;20495;-52
2023/07/07 11:14:18;;;;;;;2.60;0.90;;;23.90;95.90;;;;;;5136738;27;20085;-54
2023/07/07 11:16:53;;;;;;;2.72;1.00;;;24.00;98.50;;;;;;5136806;27;20138;-53
2023/07/07 11:19:25;;;;;;;4.28;1.08;;;24.10;99.80;;;;;;5136719;27;20051;-49
2023/07/07 11:22:12;;;;;;;2.50;0.98;;;24.20;99.90;;;;;;5136582;27;20143;-49
2023/07/07 11:24:55;;;;;;;2.97;1.20;;;24.30;99.80;;;;;;5136700;27;20047;-49
2023/07/07 11:27:35;;;;;;;3.70;1.20;;;24.30;98.90;;;;;;5136557;27;20051;-48
2023/07/07 11:30:20;;;;;;;3.42;1.10;;;24.20;98.90;;;;;;5136458;27;20515;-49
2023/07/07 11:33:05;;;;;;;3.97;0.90;;;24.20;98.80;;;;;;5136994;27;20046;-49
2023/07/07 11:35:57;;;;;;;2.72;1.00;;;24.30;99.00;;;;;;5136478;27;20054;-48
2023/07/07 11:38:44;;;;;;;3.47;0.90;;;24.40;99.10;;;;;;5136292;27;20054;-48
2023/07/07 11:41:24;;;;;;;3.58;1.45;;;24.60;99.40;;;;;;5136644;27;20492;-49
2023/07/07 11:43:56;;;;;;;4.40;1.10;;;24.70;99.60;;;;;;5136300;27;20090;-49
2023/07/07 11:46:54;;;;;;;2.58;0.88;;;24.80;99.40;;;;;;5136362;27;20043;-49
2023/07/07 11:49:38;;;;;;;2.65;1.02;;;24.80;99.00;;;;;;5118289;27;20091;-48
2023/07/07 11:52:23;;;;;;;2.78;0.98;;;24.90;98.50;;;;;;5136071;27;20495;-50
2023/07/07 11:55:17;;;;;;;2.70;1.00;;;24.90;97.90;;;;;;5117890;27;20054;-51
2023/07/07 11:58:00;;;;;;;2.67;1.10;;;24.90;97.50;;;;;;5135950;27;20062;-49
2023/07/07 12:01:15;;;;;;;2.58;1.00;;;25.00;97.80;;;;;;5135996;27;20043;-48
2023/07/07 12:03:53;;;;;;;3.85;1.08;;;25.00;97.10;;;;;;5052288;28;20087;-51
2023/07/07 12:06:32;;;;;;;3.78;1.13;;;25.10;96.80;;;;;;5133759;27;20441;-49
2023/07/07 12:09:18;;;;;;;2.15;1.00;;;25.10;96.80;;;;;;5136303;27;20078;-52
2023/07/07 12:11:57;;;;;;;3.35;0.80;;;25.20;96.40;;;;;;5135120;27;20426;-46
2023/07/07 12:14:45;;;;;;;2.55;1.10;;;25.40;96.50;;;;;;5117625;27;20498;-52
2023/07/07 12:17:16;;;;;;;2.42;0.90;;;25.50;96.60;;;;;;5117540;27;20082;-49
2023/07/07 12:19:53;;;;;;;3.00;0.90;;;25.60;96.20;;;;;;5135841;27;20126;-48
2023/07/07 12:22:24;;;;;;;4.45;0.90;;;25.60;96.10;;;;;;5117317;27;20054;-50
2023/07/07 12:24:59;;;;;;;2.75;1.08;;;25.70;95.90;;;;;;5135520;27;20043;-48
2023/07/07 12:27:41;;;;;;;2.23;0.97;;;25.70;95.50;;;;;;5135673;27;20509;-51
2023/07/07 12:30:18;;;;;;;2.38;0.90;;;25.60;94.70;;;;;;5117335;27;20351;-48
2023/07/07 12:32:44;;;;;;;3.55;1.15;;;25.70;95.00;;;;;;5135267;27;20166;-48
2023/07/07 12:35:36;;;;;;;;;;;25.70;94.80;;;;;;5135696;27;20047;-49
2023/07/07 12:38:21;;;;;;;2.97;0.95;;;25.80;92.60;;;;;;5135421;27;20018;-53
2023/07/07 12:40:48;;;;;;;2.85;0.82;;;25.80;94.00;;;;;;5135152;27;20050;-52
2023/07/07 12:43:40;;;;;;;2.08;0.70;;;25.90;94.60;;;;;;5134842;27;20114;-48
2023/07/07 12:46:20;;;;;;;2.17;1.02;;;26.00;93.80;;;;;;5135099;27;20039;-48
2023/07/07 12:48:46;;;;;;;3.03;1.13;;;26.10;93.60;;;;;;5135265;27;20039;-51
2023/07/07 12:51:12;;;;;;;2.78;1.00;;;26.10;93.50;;;;;;5135065;27;20039;-49
2023/07/07 12:53:44;;;;;;;2.67;1.10;;;26.00;92.80;;;;;;5134866;27;20047;-51
2023/07/07 12:56:09;;;;;;;4.05;1.10;;;26.00;92.40;;;;;;5134989;27;20043;-52
2023/07/07 12:58:35;;;;;;;;;;;26.10;92.60;;;;;;5135170;27;20407;-53
2023/07/07 13:01:05;;;;;;;2.42;0.80;;;26.10;92.50;;;;;;5134752;27;20000;-54
2023/07/07 13:03:31;;;;;;;3.03;0.85;;;26.20;92.90;;;;;;5134710;27;20058;-52
2023/07/07 13:06:00;;;;;;;;;;;26.20;92.70;;;;;;5135025;27;20035;-54
2023/07/07 13:08:39;;;;;;;2.85;0.95;;;26.30;91.40;;;;;;5134652;27;19919;-50